sensor_id;sensor_type;location;lat;lon;timestamp;pressure;altitude;pressure_sealevel;temperature;humidity
54248;BME280;40161;39.768;2.722;2023-07-13T00:01:50;101091.25;;;27.74;95.57
54248;BME280;40161;39.768;2.722;2023-07-13T00:04:18;101085.81;;;27.61;96.39
54248;BME280;40161;39.768;2.722;2023-07-13T00:06:44;101088.47;;;27.56;96.89
54248;BME280;40161;39.768;2.722;2023-07-13T00:09:16;101087.28;;;27.48;98.09
54248;BME280;40161;39.768;2.722;2023-07-13T00:11:43;101090.41;;;27.50;98.14
54248;BME280;40161;39.768;2.722;2023-07-13T00:14:10;101091.47;;;27.52;98.32
54248;BME280;40161;39.768;2.722;2023-07-13T00:16:38;101084.44;;;27.57;98.27
54248;BME280;40161;39.768;2.722;2023-07-13T00:19:05;101085.03;;;27.61;97.67
54248;BME280;40161;39.768;2.722;2023-07-13T00:21:31;101065.81;;;27.50;97.14
54248;BME280;40161;39.768;2.722;2023-07-13T00:23:57;101081.56;;;27.66;97.62
54248;BME280;40161;39.768;2.722;2023-07-13T00:26:23;101081.38;;;27.79;95.94
54248;BME280;40161;39.768;2.722;2023-07-13T00:28:48;101085.41;;;27.87;95.04
54248;BME280;40161;39.768;2.722;2023-07-13T00:31:14;101073.06;;;27.84;94.06
54248;BME280;40161;39.768;2.722;2023-07-13T00:33:41;101078.34;;;27.91;93.56
54248;BME280;40161;39.768;2.722;2023-07-13T00:36:08;101074.75;;;27.91;93.68
54248;BME280;40161;39.768;2.722;2023-07-13T00:38:34;101080.72;;;27.84;94.23
54248;BME280;40161;39.768;2.722;2023-07-13T00:40:59;101074.31;;;27.74;94.82
54248;BME280;40161;39.768;2.722;2023-07-13T00:43:28;101068.72;;;27.65;95.39
54248;BME280;40161;39.768;2.722;2023-07-13T00:48:21;101055.78;;;27.49;98.24
54248;BME280;40161;39.768;2.722;2023-07-13T00:50:51;101052.97;;;27.49;97.72
54248;BME280;40161;39.768;2.722;2023-07-13T00:53:18;101046.72;;;27.45;98.73
54248;BME280;40161;39.768;2.722;2023-07-13T00:55:46;101059.44;;;27.40;98.37
54248;BME280;40161;39.768;2.722;2023-07-13T00:58:12;101056.00;;;27.36;99.16
54248;BME280;40161;39.768;2.722;2023-07-13T01:00:38;101057.91;;;27.30;99.26
54248;BME280;40161;39.768;2.722;2023-07-13T01:03:04;101052.13;;;27.25;98.93
54248;BME280;40161;39.768;2.722;2023-07-13T01:05:32;101051.81;;;27.23;98.21
54248;BME280;40161;39.768;2.722;2023-07-13T01:07:59;101045.09;;;27.20;97.80
54248;BME280;40161;39.768;2.722;2023-07-13T01:10:26;101047.09;;;27.29;97.49
54248;BME280;40161;39.768;2.722;2023-07-13T01:12:53;101055.84;;;27.31;97.77
54248;BME280;40161;39.768;2.722;2023-07-13T01:15:38;101071.97;;;27.30;98.42
54248;BME280;40161;39.768;2.722;2023-07-13T01:18:09;101058.53;;;27.25;98.97
54248;BME280;40161;39.768;2.722;2023-07-13T01:20:37;101045.88;;;27.20;99.50
54248;BME280;40161;39.768;2.722;2023-07-13T01:23:07;101064.97;;;27.26;99.99
54248;BME280;40161;39.768;2.722;2023-07-13T01:25:34;101063.88;;;27.23;100.00
54248;BME280;40161;39.768;2.722;2023-07-13T01:28:01;101074.03;;;27.30;100.00
54248;BME280;40161;39.768;2.722;2023-07-13T01:30:27;101044.50;;;27.16;99.31
54248;BME280;40161;39.768;2.722;2023-07-13T01:32:52;101067.63;;;27.29;100.00
54248;BME280;40161;39.768;2.722;2023-07-13T01:35:18;101060.72;;;27.30;100.00
54248;BME280;40161;39.768;2.722;2023-07-13T01:37:43;101064.72;;;27.48;98.49
54248;BME280;40161;39.768;2.722;2023-07-13T01:40:11;101057.97;;;27.54;97.96
54248;BME280;40161;39.768;2.722;2023-07-13T01:42:38;101057.63;;;27.61;96.71
54248;BME280;40161;39.768;2.722;2023-07-13T01:45:06;101051.59;;;27.44;97.69
54248;BME280;40161;39.768;2.722;2023-07-13T01:47:32;101034.75;;;27.26;98.81
54248;BME280;40161;39.768;2.722;2023-07-13T01:49:57;101059.78;;;27.33;99.94
54248;BME280;40161;39.768;2.722;2023-07-13T01:52:23;101052.56;;;27.32;100.00
54248;BME280;40161;39.768;2.722;2023-07-13T01:54:48;101062.06;;;27.44;99.57
54248;BME280;40161;39.768;2.722;2023-07-13T01:57:14;101056.59;;;27.50;97.75
54248;BME280;40161;39.768;2.722;2023-07-13T01:59:39;101065.22;;;27.46;98.01
54248;BME280;40161;39.768;2.722;2023-07-13T02:02:05;101070.69;;;27.40;98.71
54248;BME280;40161;39.768;2.722;2023-07-13T02:04:31;101069.16;;;27.39;99.42
54248;BME280;40161;39.768;2.722;2023-07-13T02:06:57;101026.63;;;27.19;98.70
54248;BME280;40161;39.768;2.722;2023-07-13T02:09:22;101039.91;;;27.18;99.61
54248;BME280;40161;39.768;2.722;2023-07-13T02:11:48;101069.59;;;27.38;99.99
54248;BME280;40161;39.768;2.722;2023-07-13T02:14:14;101063.69;;;27.27;100.00
54248;BME280;40161;39.768;2.722;2023-07-13T02:16:41;101080.28;;;27.34;100.00
54248;BME280;40161;39.768;2.722;2023-07-13T02:19:07;101050.38;;;27.27;99.07
54248;BME280;40161;39.768;2.722;2023-07-13T02:21:32;101082.25;;;27.52;98.51
54248;BME280;40161;39.768;2.722;2023-07-13T02:23:58;101081.16;;;27.49;97.01
54248;BME280;40161;39.768;2.722;2023-07-13T02:26:23;101087.28;;;27.38;98.80
54248;BME280;40161;39.768;2.722;2023-07-13T02:28:49;101060.44;;;27.10;100.00
54248;BME280;40161;39.768;2.722;2023-07-13T02:31:15;101087.03;;;27.18;100.00
54248;BME280;40161;39.768;2.722;2023-07-13T02:33:41;101098.13;;;27.21;100.00
54248;BME280;40161;39.768;2.722;2023-07-13T02:36:07;101096.13;;;27.22;100.00
54248;BME280;40161;39.768;2.722;2023-07-13T02:38:34;101088.47;;;27.13;100.00
54248;BME280;40161;39.768;2.722;2023-07-13T02:41:00;101105.03;;;27.20;100.00
54248;BME280;40161;39.768;2.722;2023-07-13T02:43:27;101119.44;;;27.23;100.00
54248;BME280;40161;39.768;2.722;2023-07-13T02:45:52;101111.94;;;27.19;100.00
54248;BME280;40161;39.768;2.722;2023-07-13T02:48:18;101085.16;;;26.96;100.00
54248;BME280;40161;39.768;2.722;2023-07-13T02:50:44;101116.47;;;27.17;100.00
54248;BME280;40161;39.768;2.722;2023-07-13T02:53:10;101104.72;;;27.18;100.00
54248;BME280;40161;39.768;2.722;2023-07-13T02:55:36;101087.03;;;27.09;100.00
54248;BME280;40161;39.768;2.722;2023-07-13T02:58:02;101107.69;;;27.24;100.00
54248;BME280;40161;39.768;2.722;2023-07-13T03:00:27;101106.75;;;27.18;100.00
54248;BME280;40161;39.768;2.722;2023-07-13T03:02:53;101089.84;;;26.99;100.00
54248;BME280;40161;39.768;2.722;2023-07-13T03:05:22;101102.19;;;27.30;100.00
54248;BME280;40161;39.768;2.722;2023-07-13T03:07:47;101113.31;;;27.33;99.47
54248;BME280;40161;39.768;2.722;2023-07-13T03:10:13;101112.22;;;27.31;98.69
54248;BME280;40161;39.768;2.722;2023-07-13T03:12:38;101118.44;;;27.35;99.02
54248;BME280;40161;39.768;2.722;2023-07-13T03:15:04;101125.97;;;27.38;97.79
54248;BME280;40161;39.768;2.722;2023-07-13T03:17:30;101128.19;;;27.25;99.60
54248;BME280;40161;39.768;2.722;2023-07-13T03:19:56;101128.34;;;27.12;100.00
54248;BME280;40161;39.768;2.722;2023-07-13T03:22:22;101130.06;;;27.09;100.00
54248;BME280;40161;39.768;2.722;2023-07-13T03:24:48;101127.09;;;27.04;100.00
54248;BME280;40161;39.768;2.722;2023-07-13T03:27:15;101129.94;;;26.94;100.00
54248;BME280;40161;39.768;2.722;2023-07-13T03:29:41;101136.00;;;26.93;100.00
54248;BME280;40161;39.768;2.722;2023-07-13T03:32:06;101133.81;;;26.97;100.00
54248;BME280;40161;39.768;2.722;2023-07-13T03:34:32;101128.66;;;26.95;100.00
54248;BME280;40161;39.768;2.722;2023-07-13T03:36:58;101139.16;;;27.23;100.00
54248;BME280;40161;39.768;2.722;2023-07-13T03:39:23;101136.63;;;27.25;99.41
54248;BME280;40161;39.768;2.722;2023-07-13T03:41:49;101139.75;;;27.27;99.46
54248;BME280;40161;39.768;2.722;2023-07-13T03:44:18;101111.13;;;27.10;99.31
54248;BME280;40161;39.768;2.722;2023-07-13T03:46:44;101141.50;;;27.24;99.34
54248;BME280;40161;39.768;2.722;2023-07-13T03:49:10;101138.38;;;27.22;98.10
54248;BME280;40161;39.768;2.722;2023-07-13T03:51:36;101141.19;;;27.13;100.00
54248;BME280;40161;39.768;2.722;2023-07-13T03:54:02;101140.88;;;27.02;100.00
54248;BME280;40161;39.768;2.722;2023-07-13T03:56:28;101147.44;;;26.98;100.00
54248;BME280;40161;39.768;2.722;2023-07-13T03:58:55;101157.75;;;26.83;100.00
54248;BME280;40161;39.768;2.722;2023-07-13T04:01:23;101168.25;;;26.83;100.00
54248;BME280;40161;39.768;2.722;2023-07-13T04:03:50;101167.00;;;26.74;100.00
54248;BME280;40161;39.768;2.722;2023-07-13T04:06:22;101158.53;;;26.74;100.00
54248;BME280;40161;39.768;2.722;2023-07-13T04:08:54;101155.41;;;26.91;100.00
54248;BME280;40161;39.768;2.722;2023-07-13T04:11:24;101152.75;;;27.06;100.00
54248;BME280;40161;39.768;2.722;2023-07-13T04:13:50;101144.44;;;27.11;100.00
54248;BME280;40161;39.768;2.722;2023-07-13T04:16:17;101144.44;;;27.11;100.00
54248;BME280;40161;39.768;2.722;2023-07-13T04:18:44;101133.66;;;27.10;100.00
54248;BME280;40161;39.768;2.722;2023-07-13T04:21:10;101140.25;;;27.16;100.00
54248;BME280;40161;39.768;2.722;2023-07-13T04:23:37;101135.84;;;27.15;100.00
54248;BME280;40161;39.768;2.722;2023-07-13T04:26:03;101133.34;;;27.08;100.00
54248;BME280;40161;39.768;2.722;2023-07-13T04:28:28;101139.63;;;27.03;100.00
54248;BME280;40161;39.768;2.722;2023-07-13T04:30:54;101143.03;;;27.07;100.00
54248;BME280;40161;39.768;2.722;2023-07-13T04:33:20;101158.09;;;27.13;100.00
54248;BME280;40161;39.768;2.722;2023-07-13T04:35:52;101141.78;;;27.08;100.00
54248;BME280;40161;39.768;2.722;2023-07-13T04:38:27;101159.31;;;27.03;99.75
54248;BME280;40161;39.768;2.722;2023-07-13T04:41:02;101149.31;;;27.02;100.00
54248;BME280;40161;39.768;2.722;2023-07-13T04:43:28;101142.44;;;27.03;100.00
54248;BME280;40161;39.768;2.722;2023-07-13T04:45:54;101176.41;;;27.17;100.00
54248;BME280;40161;39.768;2.722;2023-07-13T04:48:21;101169.97;;;27.17;99.81
54248;BME280;40161;39.768;2.722;2023-07-13T04:50:47;101158.22;;;27.09;100.00
54248;BME280;40161;39.768;2.722;2023-07-13T04:53:14;101169.66;;;27.06;100.00
54248;BME280;40161;39.768;2.722;2023-07-13T04:55:40;101166.50;;;27.04;100.00
54248;BME280;40161;39.768;2.722;2023-07-13T04:58:06;101156.03;;;26.86;100.00
54248;BME280;40161;39.768;2.722;2023-07-13T05:00:31;101165.41;;;26.73;100.00
54248;BME280;40161;39.768;2.722;2023-07-13T05:02:58;101141.03;;;26.61;100.00
54248;BME280;40161;39.768;2.722;2023-07-13T05:05:25;101148.53;;;26.64;100.00
54248;BME280;40161;39.768;2.722;2023-07-13T05:07:51;101128.06;;;26.64;100.00
54248;BME280;40161;39.768;2.722;2023-07-13T05:10:17;101146.81;;;26.85;100.00
54248;BME280;40161;39.768;2.722;2023-07-13T05:12:43;101144.47;;;26.93;100.00
54248;BME280;40161;39.768;2.722;2023-07-13T05:15:09;101146.19;;;26.90;100.00
54248;BME280;40161;39.768;2.722;2023-07-13T05:17:35;101142.13;;;26.91;99.72
54248;BME280;40161;39.768;2.722;2023-07-13T05:20:00;101152.28;;;26.89;99.48
54248;BME280;40161;39.768;2.722;2023-07-13T05:22:26;101157.91;;;26.80;100.00
54248;BME280;40161;39.768;2.722;2023-07-13T05:24:51;101153.22;;;26.86;99.30
54248;BME280;40161;39.768;2.722;2023-07-13T05:27:17;101158.22;;;26.91;98.44
54248;BME280;40161;39.768;2.722;2023-07-13T05:29:42;101163.69;;;27.04;98.68
54248;BME280;40161;39.768;2.722;2023-07-13T05:32:08;101173.88;;;27.10;99.22
54248;BME280;40161;39.768;2.722;2023-07-13T05:34:33;101168.41;;;27.07;99.78
54248;BME280;40161;39.768;2.722;2023-07-13T05:36:59;101174.97;;;26.94;98.65
54248;BME280;40161;39.768;2.722;2023-07-13T05:39:24;101183.88;;;26.93;99.79
54248;BME280;40161;39.768;2.722;2023-07-13T05:41:51;101172.13;;;26.76;100.00
54248;BME280;40161;39.768;2.722;2023-07-13T05:44:17;101161.97;;;26.79;100.00
54248;BME280;40161;39.768;2.722;2023-07-13T05:46:42;101165.44;;;26.92;100.00
54248;BME280;40161;39.768;2.722;2023-07-13T05:49:08;101161.81;;;26.73;98.50
54248;BME280;40161;39.768;2.722;2023-07-13T05:51:33;101175.28;;;26.78;100.00
54248;BME280;40161;39.768;2.722;2023-07-13T05:53:59;101168.41;;;26.79;100.00
54248;BME280;40161;39.768;2.722;2023-07-13T05:56:24;101184.19;;;26.86;96.14
54248;BME280;40161;39.768;2.722;2023-07-13T05:58:51;101192.34;;;26.93;92.45
54248;BME280;40161;39.768;2.722;2023-07-13T06:01:17;101197.81;;;27.06;92.83
54248;BME280;40161;39.768;2.722;2023-07-13T06:03:44;101195.94;;;27.12;95.31
54248;BME280;40161;39.768;2.722;2023-07-13T06:06:10;101200.47;;;27.18;94.96
54248;BME280;40161;39.768;2.722;2023-07-13T06:08:36;101205.50;;;27.24;96.23
54248;BME280;40161;39.768;2.722;2023-07-13T06:13:28;101206.44;;;27.30;96.83
54248;BME280;40161;39.768;2.722;2023-07-13T06:15:54;101199.53;;;27.21;94.21
54248;BME280;40161;39.768;2.722;2023-07-13T06:18:21;101201.13;;;27.13;93.79
54248;BME280;40161;39.768;2.722;2023-07-13T06:20:46;101214.28;;;27.26;93.42
54248;BME280;40161;39.768;2.722;2023-07-13T06:23:12;101215.06;;;27.26;89.76
54248;BME280;40161;39.768;2.722;2023-07-13T06:25:37;101218.34;;;27.34;87.69
54248;BME280;40161;39.768;2.722;2023-07-13T06:28:03;101221.94;;;27.34;83.26
54248;BME280;40161;39.768;2.722;2023-07-13T06:30:29;101236.78;;;27.53;86.49
54248;BME280;40161;39.768;2.722;2023-07-13T06:32:54;101225.03;;;27.55;88.35
54248;BME280;40161;39.768;2.722;2023-07-13T06:35:20;101225.81;;;27.55;88.59
54248;BME280;40161;39.768;2.722;2023-07-13T06:37:46;101241.16;;;27.63;88.84
54248;BME280;40161;39.768;2.722;2023-07-13T06:40:12;101242.56;;;27.68;88.68
54248;BME280;40161;39.768;2.722;2023-07-13T06:42:38;101245.53;;;27.64;88.69
54248;BME280;40161;39.768;2.722;2023-07-13T06:45:04;101255.25;;;27.63;84.38
54248;BME280;40161;39.768;2.722;2023-07-13T06:47:30;101256.50;;;27.62;79.58
54248;BME280;40161;39.768;2.722;2023-07-13T06:49:55;101255.09;;;27.67;76.55
54248;BME280;40161;39.768;2.722;2023-07-13T06:52:21;101256.94;;;27.70;75.42
54248;BME280;40161;39.768;2.722;2023-07-13T06:54:46;101267.13;;;27.77;71.91
54248;BME280;40161;39.768;2.722;2023-07-13T06:57:12;101268.72;;;27.78;71.35
54248;BME280;40161;39.768;2.722;2023-07-13T06:59:37;101274.97;;;27.82;70.41
54248;BME280;40161;39.768;2.722;2023-07-13T07:02:03;101279.06;;;27.81;70.44
54248;BME280;40161;39.768;2.722;2023-07-13T07:04:29;101288.13;;;27.85;70.87
54248;BME280;40161;39.768;2.722;2023-07-13T07:06:54;101278.25;;;27.80;70.23
54248;BME280;40161;39.768;2.722;2023-07-13T07:09:20;101301.41;;;27.93;69.37
54248;BME280;40161;39.768;2.722;2023-07-13T07:11:45;101309.72;;;27.97;68.06
54248;BME280;40161;39.768;2.722;2023-07-13T07:14:11;101314.56;;;28.06;68.15
54248;BME280;40161;39.768;2.722;2023-07-13T07:16:36;101313.63;;;28.00;66.72
54248;BME280;40161;39.768;2.722;2023-07-13T07:19:02;101316.28;;;28.03;66.86
54248;BME280;40161;39.768;2.722;2023-07-13T07:21:27;101320.22;;;28.06;66.34
54248;BME280;40161;39.768;2.722;2023-07-13T07:23:53;101321.91;;;28.12;66.55
54248;BME280;40161;39.768;2.722;2023-07-13T07:26:19;101322.03;;;28.18;65.39
54248;BME280;40161;39.768;2.722;2023-07-13T07:28:45;101263.69;;;27.91;65.82
54248;BME280;40161;39.768;2.722;2023-07-13T07:31:11;101320.16;;;28.24;65.30
54248;BME280;40161;39.768;2.722;2023-07-13T07:33:37;101322.50;;;28.26;64.79
54248;BME280;40161;39.768;2.722;2023-07-13T07:36:02;101337.53;;;28.32;63.70
54248;BME280;40161;39.768;2.722;2023-07-13T07:38:28;101334.41;;;28.30;64.18
54248;BME280;40161;39.768;2.722;2023-07-13T07:40:54;101337.66;;;28.37;63.61
54248;BME280;40161;39.768;2.722;2023-07-13T07:43:19;101329.69;;;28.36;63.54
54248;BME280;40161;39.768;2.722;2023-07-13T07:45:45;101331.25;;;28.46;64.51
54248;BME280;40161;39.768;2.722;2023-07-13T07:48:11;101323.84;;;28.49;60.08
54248;BME280;40161;39.768;2.722;2023-07-13T07:50:39;101324.41;;;28.62;54.35
54248;BME280;40161;39.768;2.722;2023-07-13T07:53:06;101337.63;;;28.89;53.37
54248;BME280;40161;39.768;2.722;2023-07-13T07:55:36;101333.81;;;29.01;53.85
54248;BME280;40161;39.768;2.722;2023-07-13T07:58:01;101346.81;;;29.08;57.01
54248;BME280;40161;39.768;2.722;2023-07-13T08:00:27;101343.19;;;29.07;58.91
54248;BME280;40161;39.768;2.722;2023-07-13T08:02:55;101346.38;;;29.24;54.50
54248;BME280;40161;39.768;2.722;2023-07-13T08:05:21;101347.81;;;29.20;56.19
54248;BME280;40161;39.768;2.722;2023-07-13T08:07:46;101339.97;;;29.39;55.18
54248;BME280;40161;39.768;2.722;2023-07-13T08:10:12;101357.13;;;29.35;55.10
54248;BME280;40161;39.768;2.722;2023-07-13T08:12:39;101349.38;;;29.21;54.67
54248;BME280;40161;39.768;2.722;2023-07-13T08:15:06;101338.34;;;29.08;53.76
54248;BME280;40161;39.768;2.722;2023-07-13T08:17:32;101352.09;;;29.15;53.98
54248;BME280;40161;39.768;2.722;2023-07-13T08:19:57;101350.34;;;29.18;53.53
54248;BME280;40161;39.768;2.722;2023-07-13T08:22:23;101347.94;;;29.25;54.33
54248;BME280;40161;39.768;2.722;2023-07-13T08:24:49;101360.94;;;29.32;53.93
54248;BME280;40161;39.768;2.722;2023-07-13T08:27:21;101365.13;;;29.37;53.01
54248;BME280;40161;39.768;2.722;2023-07-13T08:29:47;101333.31;;;29.27;50.85
54248;BME280;40161;39.768;2.722;2023-07-13T08:32:13;101359.91;;;29.44;51.62
54248;BME280;40161;39.768;2.722;2023-07-13T08:34:39;101364.78;;;29.44;51.29
54248;BME280;40161;39.768;2.722;2023-07-13T08:37:05;101370.59;;;29.40;50.17
54248;BME280;40161;39.768;2.722;2023-07-13T08:39:31;101376.84;;;29.44;49.64
54248;BME280;40161;39.768;2.722;2023-07-13T08:47:21;101367.34;;;29.56;50.93
54248;BME280;40161;39.768;2.722;2023-07-13T08:49:48;101363.25;;;29.57;51.24
54248;BME280;40161;39.768;2.722;2023-07-13T08:52:46;101371.69;;;29.67;50.32
54248;BME280;40161;39.768;2.722;2023-07-13T08:55:24;101369.94;;;29.69;49.34
54248;BME280;40161;39.768;2.722;2023-07-13T08:58:13;101369.53;;;29.76;48.49
54248;BME280;40161;39.768;2.722;2023-07-13T09:03:24;101372.41;;;29.91;47.36
54248;BME280;40161;39.768;2.722;2023-07-13T09:05:56;101373.31;;;29.97;48.16
54248;BME280;40161;39.768;2.722;2023-07-13T09:08:45;101356.88;;;29.87;49.60
54248;BME280;40161;39.768;2.722;2023-07-13T09:11:36;101372.22;;;29.95;48.94
54248;BME280;40161;39.768;2.722;2023-07-13T09:14:43;101388.03;;;30.01;48.16
54248;BME280;40161;39.768;2.722;2023-07-13T09:17:25;101362.34;;;29.90;47.93
54248;BME280;40161;39.768;2.722;2023-07-13T09:20:25;101384.25;;;30.04;48.25
54248;BME280;40161;39.768;2.722;2023-07-13T09:22:52;101386.75;;;30.17;47.97
54248;BME280;40161;39.768;2.722;2023-07-13T09:25:30;101378.66;;;30.10;47.09
54248;BME280;40161;39.768;2.722;2023-07-13T09:28:02;101379.78;;;30.27;47.25
54248;BME280;40161;39.768;2.722;2023-07-13T09:31:01;101380.66;;;30.34;48.45
54248;BME280;40161;39.768;2.722;2023-07-13T09:33:29;101373.84;;;30.25;48.74
54248;BME280;40161;39.768;2.722;2023-07-13T09:35:59;101389.81;;;30.43;48.91
54248;BME280;40161;39.768;2.722;2023-07-13T09:38:27;101398.13;;;30.47;48.92
54248;BME280;40161;39.768;2.722;2023-07-13T09:46:34;101397.22;;;30.85;44.24
54248;BME280;40161;39.768;2.722;2023-07-13T09:49:00;101380.13;;;30.80;45.15
54248;BME280;40161;39.768;2.722;2023-07-13T09:51:25;101389.50;;;30.86;45.43
54248;BME280;40161;39.768;2.722;2023-07-13T09:53:51;101380.81;;;30.74;45.64
54248;BME280;40161;39.768;2.722;2023-07-13T09:56:26;101389.91;;;30.79;45.70
54248;BME280;40161;39.768;2.722;2023-07-13T09:58:53;101387.06;;;30.79;44.06
54248;BME280;40161;39.768;2.722;2023-07-13T10:01:38;101373.03;;;31.05;44.87
54248;BME280;40161;39.768;2.722;2023-07-13T10:04:11;101391.78;;;31.02;44.90
54248;BME280;40161;39.768;2.722;2023-07-13T10:06:39;101390.25;;;31.01;43.60
54248;BME280;40161;39.768;2.722;2023-07-13T10:09:09;101399.00;;;31.03;42.55
54248;BME280;40161;39.768;2.722;2023-07-13T10:11:36;101406.25;;;31.04;44.93
54248;BME280;40161;39.768;2.722;2023-07-13T10:14:03;101387.00;;;31.08;43.66
54248;BME280;40161;39.768;2.722;2023-07-13T10:16:35;101383.59;;;31.25;43.00
54248;BME280;40161;39.768;2.722;2023-07-13T10:19:12;101390.84;;;31.26;45.76
54248;BME280;40161;39.768;2.722;2023-07-13T10:22:01;101402.44;;;31.28;43.32
54248;BME280;40161;39.768;2.722;2023-07-13T10:24:31;101395.00;;;31.30;43.68
54248;BME280;40161;39.768;2.722;2023-07-13T10:27:15;101375.31;;;31.41;41.47
54248;BME280;40161;39.768;2.722;2023-07-13T10:30:00;101392.63;;;31.64;42.08
54248;BME280;40161;39.768;2.722;2023-07-13T10:32:27;101389.38;;;31.51;41.56
54248;BME280;40161;39.768;2.722;2023-07-13T10:34:53;101394.56;;;31.52;42.43
54248;BME280;40161;39.768;2.722;2023-07-13T10:37:26;101389.16;;;31.54;42.55
54248;BME280;40161;39.768;2.722;2023-07-13T10:39:55;101395.38;;;31.58;43.15
54248;BME280;40161;39.768;2.722;2023-07-13T10:42:29;101394.06;;;31.54;42.96
54248;BME280;40161;39.768;2.722;2023-07-13T10:44:56;101368.66;;;31.44;43.36
54248;BME280;40161;39.768;2.722;2023-07-13T10:47:22;101386.44;;;31.65;42.90
54248;BME280;40161;39.768;2.722;2023-07-13T10:49:50;101389.66;;;31.73;41.63
54248;BME280;40161;39.768;2.722;2023-07-13T10:55:05;101383.78;;;32.03;41.36
54248;BME280;40161;39.768;2.722;2023-07-13T10:57:42;101373.88;;;31.92;42.34
54248;BME280;40161;39.768;2.722;2023-07-13T11:00:16;101382.59;;;31.89;44.65
54248;BME280;40161;39.768;2.722;2023-07-13T11:02:42;101373.66;;;31.96;44.04
54248;BME280;40161;39.768;2.722;2023-07-13T11:05:38;101377.63;;;32.04;42.28
54248;BME280;40161;39.768;2.722;2023-07-13T11:10:56;101374.78;;;32.04;44.19
54248;BME280;40161;39.768;2.722;2023-07-13T11:16:44;101382.34;;;31.87;42.40
54248;BME280;40161;39.768;2.722;2023-07-13T11:25:00;101383.78;;;32.03;43.58
54248;BME280;40161;39.768;2.722;2023-07-13T11:30:31;101365.97;;;32.02;43.63
54248;BME280;40161;39.768;2.722;2023-07-13T11:33:22;101368.13;;;32.13;43.46
54248;BME280;40161;39.768;2.722;2023-07-13T11:36:02;101363.91;;;32.29;44.44
54248;BME280;40161;39.768;2.722;2023-07-13T11:38:32;101367.06;;;32.36;45.60
54248;BME280;40161;39.768;2.722;2023-07-13T11:41:10;101292.56;;;31.89;45.72
54248;BME280;40161;39.768;2.722;2023-07-13T11:43:40;101367.06;;;32.36;45.36
54248;BME280;40161;39.768;2.722;2023-07-13T11:46:24;101361.72;;;32.44;45.33
54248;BME280;40161;39.768;2.722;2023-07-13T11:48:51;101363.56;;;32.47;45.49
54248;BME280;40161;39.768;2.722;2023-07-13T11:51:26;101360.25;;;32.54;45.00
54248;BME280;40161;39.768;2.722;2023-07-13T11:53:54;101355.09;;;32.53;45.81
54248;BME280;40161;39.768;2.722;2023-07-13T11:56:23;101358.41;;;32.51;45.32
54248;BME280;40161;39.768;2.722;2023-07-13T11:58:52;101345.78;;;32.52;43.76
54248;BME280;40161;39.768;2.722;2023-07-13T12:01:25;101334.28;;;32.41;43.58
54248;BME280;40161;39.768;2.722;2023-07-13T12:03:54;101330.22;;;32.42;44.26
54248;BME280;40161;39.768;2.722;2023-07-13T12:06:33;101324.81;;;32.44;45.02
54248;BME280;40161;39.768;2.722;2023-07-13T12:09:11;101329.31;;;32.62;45.07
54248;BME280;40161;39.768;2.722;2023-07-13T12:11:43;101331.41;;;32.67;44.56
54248;BME280;40161;39.768;2.722;2023-07-13T12:14:17;101311.22;;;32.59;45.27
54248;BME280;40161;39.768;2.722;2023-07-13T12:16:44;101341.56;;;32.79;44.94
54248;BME280;40161;39.768;2.722;2023-07-13T12:19:27;101326.56;;;32.73;45.40
54248;BME280;40161;39.768;2.722;2023-07-13T12:21:55;101344.09;;;32.72;43.81
54248;BME280;40161;39.768;2.722;2023-07-13T12:24:22;101335.81;;;32.68;44.23
54248;BME280;40161;39.768;2.722;2023-07-13T12:29:18;101337.81;;;32.62;43.38
54248;BME280;40161;39.768;2.722;2023-07-13T12:31:46;101342.00;;;32.67;43.63
54248;BME280;40161;39.768;2.722;2023-07-13T12:34:18;101333.19;;;32.65;43.17
54248;BME280;40161;39.768;2.722;2023-07-13T12:37:00;101332.72;;;32.72;44.19
54248;BME280;40161;39.768;2.722;2023-07-13T12:39:34;101332.19;;;32.68;43.61
54248;BME280;40161;39.768;2.722;2023-07-13T12:42:33;101330.91;;;32.69;43.40
54248;BME280;40161;39.768;2.722;2023-07-13T12:45:03;101352.84;;;32.63;43.99
54248;BME280;40161;39.768;2.722;2023-07-13T12:47:30;101336.81;;;32.59;43.62
54248;BME280;40161;39.768;2.722;2023-07-13T12:50:03;101339.63;;;32.59;43.65
54248;BME280;40161;39.768;2.722;2023-07-13T12:52:34;101336.31;;;32.67;43.01
54248;BME280;40161;39.768;2.722;2023-07-13T12:55:07;101332.72;;;32.72;43.61
54248;BME280;40161;39.768;2.722;2023-07-13T12:57:49;101327.81;;;32.72;43.95
54248;BME280;40161;39.768;2.722;2023-07-13T13:00:25;101332.50;;;32.75;43.47
54248;BME280;40161;39.768;2.722;2023-07-13T13:02:53;101331.25;;;32.82;42.80
54248;BME280;40161;39.768;2.722;2023-07-13T13:05:21;101330.16;;;32.74;43.61
54248;BME280;40161;39.768;2.722;2023-07-13T13:07:49;101319.78;;;32.65;43.70
54248;BME280;40161;39.768;2.722;2023-07-13T13:10:15;101316.75;;;32.74;43.08
54248;BME280;40161;39.768;2.722;2023-07-13T13:12:41;101316.47;;;32.72;43.56
54248;BME280;40161;39.768;2.722;2023-07-13T13:15:10;101326.63;;;32.84;42.95
54248;BME280;40161;39.768;2.722;2023-07-13T13:17:37;101320.13;;;32.78;43.81
54248;BME280;40161;39.768;2.722;2023-07-13T13:20:18;101327.34;;;32.79;42.38
54248;BME280;40161;39.768;2.722;2023-07-13T13:22:44;101327.16;;;32.89;43.98
54248;BME280;40161;39.768;2.722;2023-07-13T13:25:14;101316.31;;;32.93;43.08
54248;BME280;40161;39.768;2.722;2023-07-13T13:27:44;101327.16;;;32.89;42.57
54248;BME280;40161;39.768;2.722;2023-07-13T13:30:11;101323.84;;;32.96;42.14
54248;BME280;40161;39.768;2.722;2023-07-13T13:32:39;101327.53;;;33.07;42.20
54248;BME280;40161;39.768;2.722;2023-07-13T13:35:05;101310.13;;;32.94;42.25